sensor_id;sensor_type;location;lat;lon;timestamp;temperature;humidity
14188;DHT22;7175;51.978;5.330;2023-06-10T00:00:57;21.00;99.90
14188;DHT22;7175;51.978;5.330;2023-06-10T00:03:26;20.90;99.90
14188;DHT22;7175;51.978;5.330;2023-06-10T00:05:58;20.80;99.90
14188;DHT22;7175;51.978;5.330;2023-06-10T00:08:26;20.90;99.90
14188;DHT22;7175;51.978;5.330;2023-06-10T00:10:58;20.80;99.90
14188;DHT22;7175;51.978;5.330;2023-06-10T00:13:27;20.80;99.90
14188;DHT22;7175;51.978;5.330;2023-06-10T00:15:56;20.70;99.90
14188;DHT22;7175;51.978;5.330;2023-06-10T00:18:25;20.70;99.90
14188;DHT22;7175;51.978;5.330;2023-06-10T00:20:54;20.60;99.90
14188;DHT22;7175;51.978;5.330;2023-06-10T00:23:25;20.70;99.90
14188;DHT22;7175;51.978;5.330;2023-06-10T00:25:56;20.60;99.90
14188;DHT22;7175;51.978;5.330;2023-06-10T00:28:25;20.60;99.90
14188;DHT22;7175;51.978;5.330;2023-06-10T00:31:02;20.50;99.90
14188;DHT22;7175;51.978;5.330;2023-06-10T00:33:34;20.50;99.90
14188;DHT22;7175;51.978;5.330;2023-06-10T00:36:02;20.50;99.90
14188;DHT22;7175;51.978;5.330;2023-06-10T00:38:33;20.50;99.90
14188;DHT22;7175;51.978;5.330;2023-06-10T00:41:01;20.40;99.90
14188;DHT22;7175;51.978;5.330;2023-06-10T00:43:32;20.30;99.90
14188;DHT22;7175;51.978;5.330;2023-06-10T00:46:01;20.30;99.90
14188;DHT22;7175;51.978;5.330;2023-06-10T00:48:30;20.20;99.90
14188;DHT22;7175;51.978;5.330;2023-06-10T00:50:59;20.20;99.90
14188;DHT22;7175;51.978;5.330;2023-06-10T00:53:28;20.10;99.90
14188;DHT22;7175;51.978;5.330;2023-06-10T00:55:58;20.10;99.90
14188;DHT22;7175;51.978;5.330;2023-06-10T00:58:27;20.10;99.90
14188;DHT22;7175;51.978;5.330;2023-06-10T01:00:55;20.00;99.90
14188;DHT22;7175;51.978;5.330;2023-06-10T01:03:25;20.00;99.90
14188;DHT22;7175;51.978;5.330;2023-06-10T01:06:00;19.90;99.90
14188;DHT22;7175;51.978;5.330;2023-06-10T01:08:35;19.90;99.90
14188;DHT22;7175;51.978;5.330;2023-06-10T01:11:11;19.90;99.90
14188;DHT22;7175;51.978;5.330;2023-06-10T01:13:42;19.90;99.90
14188;DHT22;7175;51.978;5.330;2023-06-10T01:16:11;19.90;99.90
14188;DHT22;7175;51.978;5.330;2023-06-10T01:18:40;19.80;99.90
14188;DHT22;7175;51.978;5.330;2023-06-10T01:21:14;19.80;99.90
14188;DHT22;7175;51.978;5.330;2023-06-10T01:23:43;19.90;99.90
14188;DHT22;7175;51.978;5.330;2023-06-10T01:26:12;19.80;99.90
14188;DHT22;7175;51.978;5.330;2023-06-10T01:28:44;19.70;99.90
14188;DHT22;7175;51.978;5.330;2023-06-10T01:31:20;19.80;99.90
14188;DHT22;7175;51.978;5.330;2023-06-10T01:33:52;19.70;99.90
14188;DHT22;7175;51.978;5.330;2023-06-10T01:36:23;19.70;99.90
14188;DHT22;7175;51.978;5.330;2023-06-10T01:38:54;19.70;99.90
14188;DHT22;7175;51.978;5.330;2023-06-10T01:41:24;19.60;99.90
14188;DHT22;7175;51.978;5.330;2023-06-10T01:43:54;19.60;99.90
14188;DHT22;7175;51.978;5.330;2023-06-10T01:46:23;19.60;99.90
14188;DHT22;7175;51.978;5.330;2023-06-10T01:48:52;19.60;99.90
14188;DHT22;7175;51.978;5.330;2023-06-10T01:51:22;19.50;99.90
14188;DHT22;7175;51.978;5.330;2023-06-10T01:53:51;19.50;99.90
14188;DHT22;7175;51.978;5.330;2023-06-10T01:56:20;19.50;99.90
14188;DHT22;7175;51.978;5.330;2023-06-10T01:58:49;19.40;99.90
14188;DHT22;7175;51.978;5.330;2023-06-10T02:01:17;19.40;99.90
14188;DHT22;7175;51.978;5.330;2023-06-10T02:04:16;19.50;99.90
14188;DHT22;7175;51.978;5.330;2023-06-10T02:06:46;19.40;99.90
14188;DHT22;7175;51.978;5.330;2023-06-10T02:09:15;19.40;99.90
14188;DHT22;7175;51.978;5.330;2023-06-10T02:11:45;19.40;99.90
14188;DHT22;7175;51.978;5.330;2023-06-10T02:14:14;19.40;99.90
14188;DHT22;7175;51.978;5.330;2023-06-10T02:16:44;19.30;99.90
14188;DHT22;7175;51.978;5.330;2023-06-10T02:19:23;19.20;99.90
14188;DHT22;7175;51.978;5.330;2023-06-10T02:21:59;19.20;99.90
14188;DHT22;7175;51.978;5.330;2023-06-10T02:24:28;19.20;99.90
14188;DHT22;7175;51.978;5.330;2023-06-10T02:27:04;19.20;99.90
14188;DHT22;7175;51.978;5.330;2023-06-10T02:29:33;19.20;99.90
14188;DHT22;7175;51.978;5.330;2023-06-10T02:32:02;19.10;99.90
14188;DHT22;7175;51.978;5.330;2023-06-10T02:34:31;19.10;99.90
14188;DHT22;7175;51.978;5.330;2023-06-10T02:37:02;19.10;99.90
14188;DHT22;7175;51.978;5.330;2023-06-10T02:39:30;19.10;99.90
14188;DHT22;7175;51.978;5.330;2023-06-10T02:41:58;19.10;99.90
14188;DHT22;7175;51.978;5.330;2023-06-10T02:44:27;19.00;99.90
14188;DHT22;7175;51.978;5.330;2023-06-10T02:46:57;19.00;99.90
14188;DHT22;7175;51.978;5.330;2023-06-10T02:49:26;19.00;99.90
14188;DHT22;7175;51.978;5.330;2023-06-10T02:51:55;19.00;99.90
14188;DHT22;7175;51.978;5.330;2023-06-10T02:54:25;19.00;99.90
14188;DHT22;7175;51.978;5.330;2023-06-10T02:56:54;19.00;99.90
14188;DHT22;7175;51.978;5.330;2023-06-10T02:59:23;19.00;99.90
14188;DHT22;7175;51.978;5.330;2023-06-10T03:01:51;18.90;99.90
14188;DHT22;7175;51.978;5.330;2023-06-10T03:04:19;18.90;99.90
14188;DHT22;7175;51.978;5.330;2023-06-10T03:06:48;18.90;99.90
14188;DHT22;7175;51.978;5.330;2023-06-10T03:09:16;18.90;99.90
14188;DHT22;7175;51.978;5.330;2023-06-10T03:11:47;18.90;99.90
14188;DHT22;7175;51.978;5.330;2023-06-10T03:14:16;18.90;99.90
14188;DHT22;7175;51.978;5.330;2023-06-10T03:16:45;18.90;99.90
14188;DHT22;7175;51.978;5.330;2023-06-10T03:19:13;18.90;99.90
14188;DHT22;7175;51.978;5.330;2023-06-10T03:21:44;18.80;99.90
14188;DHT22;7175;51.978;5.330;2023-06-10T03:24:12;18.80;99.90
14188;DHT22;7175;51.978;5.330;2023-06-10T03:26:43;18.80;99.90
14188;DHT22;7175;51.978;5.330;2023-06-10T03:29:15;18.90;99.90
14188;DHT22;7175;51.978;5.330;2023-06-10T03:31:43;18.80;99.90
14188;DHT22;7175;51.978;5.330;2023-06-10T03:34:14;18.80;99.90
14188;DHT22;7175;51.978;5.330;2023-06-10T03:36:45;18.80;99.90
14188;DHT22;7175;51.978;5.330;2023-06-10T03:39:13;18.80;99.90
14188;DHT22;7175;51.978;5.330;2023-06-10T03:41:43;18.80;99.90
14188;DHT22;7175;51.978;5.330;2023-06-10T03:44:11;18.70;99.90
14188;DHT22;7175;51.978;5.330;2023-06-10T03:46:42;18.80;99.90
14188;DHT22;7175;51.978;5.330;2023-06-10T03:49:16;18.80;99.90
14188;DHT22;7175;51.978;5.330;2023-06-10T03:51:45;18.70;99.90
14188;DHT22;7175;51.978;5.330;2023-06-10T03:54:14;18.70;99.90
14188;DHT22;7175;51.978;5.330;2023-06-10T03:56:46;18.70;99.90
14188;DHT22;7175;51.978;5.330;2023-06-10T03:59:16;18.60;99.90
14188;DHT22;7175;51.978;5.330;2023-06-10T04:01:46;18.60;99.90
14188;DHT22;7175;51.978;5.330;2023-06-10T04:04:14;18.60;99.90
14188;DHT22;7175;51.978;5.330;2023-06-10T04:06:43;18.60;99.90
14188;DHT22;7175;51.978;5.330;2023-06-10T04:09:14;18.60;99.90
14188;DHT22;7175;51.978;5.330;2023-06-10T04:11:44;18.60;99.90
14188;DHT22;7175;51.978;5.330;2023-06-10T04:14:18;18.60;99.90
14188;DHT22;7175;51.978;5.330;2023-06-10T04:16:48;18.60;99.90
14188;DHT22;7175;51.978;5.330;2023-06-10T04:19:17;18.60;99.90
14188;DHT22;7175;51.978;5.330;2023-06-10T04:21:46;18.60;99.90
14188;DHT22;7175;51.978;5.330;2023-06-10T04:24:16;18.50;99.90
14188;DHT22;7175;51.978;5.330;2023-06-10T04:26:46;18.50;99.90
14188;DHT22;7175;51.978;5.330;2023-06-10T04:29:14;18.60;99.90
14188;DHT22;7175;51.978;5.330;2023-06-10T04:31:42;18.50;99.90
14188;DHT22;7175;51.978;5.330;2023-06-10T04:34:14;18.60;99.90
14188;DHT22;7175;51.978;5.330;2023-06-10T04:36:44;18.60;99.90
14188;DHT22;7175;51.978;5.330;2023-06-10T04:39:12;18.60;99.90
14188;DHT22;7175;51.978;5.330;2023-06-10T04:41:41;18.70;99.90
14188;DHT22;7175;51.978;5.330;2023-06-10T04:44:09;18.70;99.90
14188;DHT22;7175;51.978;5.330;2023-06-10T04:46:38;18.70;99.90
14188;DHT22;7175;51.978;5.330;2023-06-10T04:49:08;18.80;99.90
14188;DHT22;7175;51.978;5.330;2023-06-10T04:51:38;18.90;99.90
14188;DHT22;7175;51.978;5.330;2023-06-10T04:54:06;18.90;99.90
14188;DHT22;7175;51.978;5.330;2023-06-10T04:56:35;18.90;99.90
14188;DHT22;7175;51.978;5.330;2023-06-10T04:59:04;18.90;99.90
14188;DHT22;7175;51.978;5.330;2023-06-10T05:01:32;19.00;99.90
14188;DHT22;7175;51.978;5.330;2023-06-10T05:04:00;19.00;99.90
14188;DHT22;7175;51.978;5.330;2023-06-10T05:06:30;19.10;99.90
14188;DHT22;7175;51.978;5.330;2023-06-10T05:09:12;19.20;99.90
14188;DHT22;7175;51.978;5.330;2023-06-10T05:11:42;19.30;99.90
14188;DHT22;7175;51.978;5.330;2023-06-10T05:14:11;19.40;99.90
14188;DHT22;7175;51.978;5.330;2023-06-10T05:16:40;19.40;99.90
14188;DHT22;7175;51.978;5.330;2023-06-10T05:19:10;19.50;99.90
14188;DHT22;7175;51.978;5.330;2023-06-10T05:21:39;19.50;99.90
14188;DHT22;7175;51.978;5.330;2023-06-10T05:24:07;19.60;99.90
14188;DHT22;7175;51.978;5.330;2023-06-10T05:26:38;19.70;99.90
14188;DHT22;7175;51.978;5.330;2023-06-10T05:29:08;19.70;99.90
14188;DHT22;7175;51.978;5.330;2023-06-10T05:31:36;19.80;99.90
14188;DHT22;7175;51.978;5.330;2023-06-10T05:34:11;19.90;99.90
14188;DHT22;7175;51.978;5.330;2023-06-10T05:36:39;20.00;99.90
14188;DHT22;7175;51.978;5.330;2023-06-10T05:39:13;20.10;99.90
14188;DHT22;7175;51.978;5.330;2023-06-10T05:41:42;20.20;99.90
14188;DHT22;7175;51.978;5.330;2023-06-10T05:44:15;20.30;99.90
14188;DHT22;7175;51.978;5.330;2023-06-10T05:46:43;20.50;99.90
14188;DHT22;7175;51.978;5.330;2023-06-10T05:49:12;20.60;99.90
14188;DHT22;7175;51.978;5.330;2023-06-10T05:51:40;20.70;99.90
14188;DHT22;7175;51.978;5.330;2023-06-10T05:54:17;20.80;99.90
14188;DHT22;7175;51.978;5.330;2023-06-10T05:56:46;20.70;99.90
14188;DHT22;7175;51.978;5.330;2023-06-10T05:59:15;21.00;99.90
14188;DHT22;7175;51.978;5.330;2023-06-10T06:01:43;21.10;99.90
14188;DHT22;7175;51.978;5.330;2023-06-10T06:04:11;21.10;99.90
14188;DHT22;7175;51.978;5.330;2023-06-10T06:06:40;21.30;99.90
14188;DHT22;7175;51.978;5.330;2023-06-10T06:09:09;21.30;99.90
14188;DHT22;7175;51.978;5.330;2023-06-10T06:11:38;21.70;99.90
14188;DHT22;7175;51.978;5.330;2023-06-10T06:14:09;22.00;99.90
14188;DHT22;7175;51.978;5.330;2023-06-10T06:16:38;22.00;99.90
14188;DHT22;7175;51.978;5.330;2023-06-10T06:19:06;22.30;99.90
14188;DHT22;7175;51.978;5.330;2023-06-10T06:21:35;22.00;99.90
14188;DHT22;7175;51.978;5.330;2023-06-10T06:24:04;22.10;99.90
14188;DHT22;7175;51.978;5.330;2023-06-10T06:26:33;22.00;99.90
14188;DHT22;7175;51.978;5.330;2023-06-10T06:29:01;22.40;99.90
14188;DHT22;7175;51.978;5.330;2023-06-10T06:31:31;22.60;99.90
14188;DHT22;7175;51.978;5.330;2023-06-10T06:34:00;22.70;99.90
14188;DHT22;7175;51.978;5.330;2023-06-10T06:36:28;22.80;99.90
14188;DHT22;7175;51.978;5.330;2023-06-10T06:38:59;22.80;99.90
14188;DHT22;7175;51.978;5.330;2023-06-10T06:41:27;23.10;99.90
14188;DHT22;7175;51.978;5.330;2023-06-10T06:43:55;23.20;99.90
14188;DHT22;7175;51.978;5.330;2023-06-10T06:46:24;23.00;99.90
14188;DHT22;7175;51.978;5.330;2023-06-10T06:48:55;23.20;99.90
14188;DHT22;7175;51.978;5.330;2023-06-10T06:51:23;23.30;99.90
14188;DHT22;7175;51.978;5.330;2023-06-10T06:53:52;23.70;99.90
14188;DHT22;7175;51.978;5.330;2023-06-10T06:56:23;23.60;99.90
14188;DHT22;7175;51.978;5.330;2023-06-10T06:59:00;23.70;99.90
14188;DHT22;7175;51.978;5.330;2023-06-10T07:01:28;23.70;99.90
14188;DHT22;7175;51.978;5.330;2023-06-10T07:04:04;23.90;99.90
14188;DHT22;7175;51.978;5.330;2023-06-10T07:06:32;23.70;99.70
14188;DHT22;7175;51.978;5.330;2023-06-10T07:09:11;24.00;99.90
14188;DHT22;7175;51.978;5.330;2023-06-10T07:11:41;24.10;99.70
14188;DHT22;7175;51.978;5.330;2023-06-10T07:14:10;24.10;98.90
14188;DHT22;7175;51.978;5.330;2023-06-10T07:16:39;24.40;98.90
14188;DHT22;7175;51.978;5.330;2023-06-10T07:19:15;24.40;98.80
14188;DHT22;7175;51.978;5.330;2023-06-10T07:21:43;24.30;98.30
14188;DHT22;7175;51.978;5.330;2023-06-10T07:24:22;24.70;98.30
14188;DHT22;7175;51.978;5.330;2023-06-10T07:26:50;24.70;97.40
14188;DHT22;7175;51.978;5.330;2023-06-10T07:29:19;24.20;97.90
14188;DHT22;7175;51.978;5.330;2023-06-10T07:31:48;24.50;98.00
14188;DHT22;7175;51.978;5.330;2023-06-10T07:34:18;24.90;97.70
14188;DHT22;7175;51.978;5.330;2023-06-10T07:36:52;24.70;98.00
14188;DHT22;7175;51.978;5.330;2023-06-10T07:39:20;24.80;97.80
14188;DHT22;7175;51.978;5.330;2023-06-10T07:41:50;24.90;97.00
14188;DHT22;7175;51.978;5.330;2023-06-10T07:44:21;25.20;96.60
14188;DHT22;7175;51.978;5.330;2023-06-10T07:46:50;25.10;96.70
14188;DHT22;7175;51.978;5.330;2023-06-10T07:49:20;25.60;96.30
14188;DHT22;7175;51.978;5.330;2023-06-10T07:51:50;25.70;95.20
14188;DHT22;7175;51.978;5.330;2023-06-10T07:54:18;25.40;94.70
14188;DHT22;7175;51.978;5.330;2023-06-10T07:56:46;25.20;95.10
14188;DHT22;7175;51.978;5.330;2023-06-10T07:59:15;25.60;94.90
14188;DHT22;7175;51.978;5.330;2023-06-10T08:01:44;25.70;94.20
14188;DHT22;7175;51.978;5.330;2023-06-10T08:04:12;26.20;94.70
14188;DHT22;7175;51.978;5.330;2023-06-10T08:06:42;26.30;94.10
14188;DHT22;7175;51.978;5.330;2023-06-10T08:09:12;26.20;93.20
14188;DHT22;7175;51.978;5.330;2023-06-10T08:11:41;26.40;92.10
14188;DHT22;7175;51.978;5.330;2023-06-10T08:14:09;26.30;92.90
14188;DHT22;7175;51.978;5.330;2023-06-10T08:16:37;26.50;93.10
14188;DHT22;7175;51.978;5.330;2023-06-10T08:19:06;26.60;92.20
14188;DHT22;7175;51.978;5.330;2023-06-10T08:21:36;26.50;91.70
14188;DHT22;7175;51.978;5.330;2023-06-10T08:24:08;26.40;92.10
14188;DHT22;7175;51.978;5.330;2023-06-10T08:26:50;26.50;92.10
14188;DHT22;7175;51.978;5.330;2023-06-10T08:29:18;26.50;91.80
14188;DHT22;7175;51.978;5.330;2023-06-10T08:31:47;26.60;91.90
14188;DHT22;7175;51.978;5.330;2023-06-10T08:34:16;26.90;90.90
14188;DHT22;7175;51.978;5.330;2023-06-10T08:36:49;26.90;91.20
14188;DHT22;7175;51.978;5.330;2023-06-10T08:39:22;27.10;91.20
14188;DHT22;7175;51.978;5.330;2023-06-10T08:42:11;27.20;90.50
14188;DHT22;7175;51.978;5.330;2023-06-10T08:44:49;27.20;90.50
14188;DHT22;7175;51.978;5.330;2023-06-10T08:47:22;27.20;90.00
14188;DHT22;7175;51.978;5.330;2023-06-10T08:49:52;27.20;90.70
14188;DHT22;7175;51.978;5.330;2023-06-10T08:52:36;27.70;90.60
14188;DHT22;7175;51.978;5.330;2023-06-10T08:55:11;27.80;90.20
14188;DHT22;7175;51.978;5.330;2023-06-10T08:57:40;27.90;90.20
14188;DHT22;7175;51.978;5.330;2023-06-10T09:00:26;27.80;90.90
14188;DHT22;7175;51.978;5.330;2023-06-10T09:02:57;28.20;88.70
14188;DHT22;7175;51.978;5.330;2023-06-10T09:05:35;28.40;88.20
14188;DHT22;7175;51.978;5.330;2023-06-10T09:08:06;27.80;87.80
14188;DHT22;7175;51.978;5.330;2023-06-10T09:10:43;28.20;86.10
14188;DHT22;7175;51.978;5.330;2023-06-10T09:13:27;28.20;86.30
14188;DHT22;7175;51.978;5.330;2023-06-10T09:15:56;28.40;86.50
14188;DHT22;7175;51.978;5.330;2023-06-10T09:18:28;28.40;86.90
14188;DHT22;7175;51.978;5.330;2023-06-10T09:20:57;28.30;85.40
14188;DHT22;7175;51.978;5.330;2023-06-10T09:23:25;28.60;84.90
14188;DHT22;7175;51.978;5.330;2023-06-10T09:26:00;28.30;84.00
14188;DHT22;7175;51.978;5.330;2023-06-10T09:28:30;28.50;83.90
14188;DHT22;7175;51.978;5.330;2023-06-10T09:31:04;29.10;83.40
14188;DHT22;7175;51.978;5.330;2023-06-10T09:33:45;29.70;82.50
14188;DHT22;7175;51.978;5.330;2023-06-10T09:36:22;28.90;82.40
14188;DHT22;7175;51.978;5.330;2023-06-10T09:38:51;28.60;81.80
14188;DHT22;7175;51.978;5.330;2023-06-10T09:41:33;29.00;81.10
14188;DHT22;7175;51.978;5.330;2023-06-10T09:44:13;29.10;81.30
14188;DHT22;7175;51.978;5.330;2023-06-10T09:46:45;29.20;80.20
14188;DHT22;7175;51.978;5.330;2023-06-10T09:49:14;29.90;81.10
14188;DHT22;7175;51.978;5.330;2023-06-10T09:51:53;29.80;80.10
14188;DHT22;7175;51.978;5.330;2023-06-10T09:54:40;29.80;78.70
14188;DHT22;7175;51.978;5.330;2023-06-10T09:57:18;29.80;75.80
14188;DHT22;7175;51.978;5.330;2023-06-10T09:59:48;29.80;76.10
14188;DHT22;7175;51.978;5.330;2023-06-10T10:02:20;29.80;77.20
14188;DHT22;7175;51.978;5.330;2023-06-10T10:04:49;30.30;77.20
14188;DHT22;7175;51.978;5.330;2023-06-10T10:07:19;29.90;75.00
14188;DHT22;7175;51.978;5.330;2023-06-10T10:09:49;30.00;75.30
14188;DHT22;7175;51.978;5.330;2023-06-10T10:12:28;30.90;75.40
14188;DHT22;7175;51.978;5.330;2023-06-10T10:14:58;31.10;74.60
14188;DHT22;7175;51.978;5.330;2023-06-10T10:20:34;30.30;71.10
14188;DHT22;7175;51.978;5.330;2023-06-10T10:23:06;30.40;69.40
14188;DHT22;7175;51.978;5.330;2023-06-10T10:25:43;30.20;69.90
14188;DHT22;7175;51.978;5.330;2023-06-10T10:28:20;30.30;69.60
14188;DHT22;7175;51.978;5.330;2023-06-10T10:30:52;30.60;71.50
14188;DHT22;7175;51.978;5.330;2023-06-10T10:33:29;31.10;70.40
14188;DHT22;7175;51.978;5.330;2023-06-10T10:36:22;31.20;70.40
14188;DHT22;7175;51.978;5.330;2023-06-10T10:38:51;31.60;71.10
14188;DHT22;7175;51.978;5.330;2023-06-10T10:41:21;31.50;67.30
14188;DHT22;7175;51.978;5.330;2023-06-10T10:43:54;31.10;69.70
14188;DHT22;7175;51.978;5.330;2023-06-10T10:46:25;31.20;66.80
14188;DHT22;7175;51.978;5.330;2023-06-10T10:49:04;31.20;64.90
14188;DHT22;7175;51.978;5.330;2023-06-10T10:51:34;31.80;64.50
14188;DHT22;7175;51.978;5.330;2023-06-10T10:54:14;31.80;65.90
14188;DHT22;7175;51.978;5.330;2023-06-10T11:00:43;31.70;63.10
14188;DHT22;7175;51.978;5.330;2023-06-10T11:03:18;32.00;61.80
14188;DHT22;7175;51.978;5.330;2023-06-10T11:05:48;32.00;60.00
14188;DHT22;7175;51.978;5.330;2023-06-10T11:08:45;31.40;59.50
14188;DHT22;7175;51.978;5.330;2023-06-10T11:11:19;31.60;61.20
14188;DHT22;7175;51.978;5.330;2023-06-10T11:13:59;31.40;59.60
14188;DHT22;7175;51.978;5.330;2023-06-10T11:16:40;31.90;59.30
14188;DHT22;7175;51.978;5.330;2023-06-10T11:19:32;32.30;60.10
14188;DHT22;7175;51.978;5.330;2023-06-10T11:22:07;32.30;58.90
14188;DHT22;7175;51.978;5.330;2023-06-10T11:24:51;32.10;58.70
14188;DHT22;7175;51.978;5.330;2023-06-10T11:27:20;32.00;58.90
14188;DHT22;7175;51.978;5.330;2023-06-10T11:30:18;31.70;57.60
14188;DHT22;7175;51.978;5.330;2023-06-10T11:35:56;32.30;58.30
14188;DHT22;7175;51.978;5.330;2023-06-10T11:38:25;31.90;56.90
14188;DHT22;7175;51.978;5.330;2023-06-10T11:40:57;32.30;55.90
14188;DHT22;7175;51.978;5.330;2023-06-10T11:43:25;32.30;54.30
14188;DHT22;7175;51.978;5.330;2023-06-10T11:45:54;32.00;55.30
14188;DHT22;7175;51.978;5.330;2023-06-10T11:48:24;31.70;54.30
14188;DHT22;7175;51.978;5.330;2023-06-10T11:50:56;32.10;53.90
14188;DHT22;7175;51.978;5.330;2023-06-10T11:53:25;32.90;53.40
14188;DHT22;7175;51.978;5.330;2023-06-10T11:56:00;32.50;53.00
14188;DHT22;7175;51.978;5.330;2023-06-10T11:58:28;32.20;52.50
14188;DHT22;7175;51.978;5.330;2023-06-10T12:01:19;32.60;52.90
14188;DHT22;7175;51.978;5.330;2023-06-10T12:04:04;32.90;51.30
14188;DHT22;7175;51.978;5.330;2023-06-10T12:06:43;32.40;49.50
14188;DHT22;7175;51.978;5.330;2023-06-10T12:09:22;32.30;51.00
14188;DHT22;7175;51.978;5.330;2023-06-10T12:11:58;32.40;50.30
14188;DHT22;7175;51.978;5.330;2023-06-10T12:14:55;32.30;49.70
14188;DHT22;7175;51.978;5.330;2023-06-10T12:17:52;32.60;47.70
14188;DHT22;7175;51.978;5.330;2023-06-10T12:20:52;32.60;47.80
14188;DHT22;7175;51.978;5.330;2023-06-10T12:23:25;32.40;47.90
14188;DHT22;7175;51.978;5.330;2023-06-10T12:26:00;32.30;48.00
14188;DHT22;7175;51.978;5.330;2023-06-10T12:28:28;32.90;47.40
14188;DHT22;7175;51.978;5.330;2023-06-10T12:31:06;32.50;46.80
14188;DHT22;7175;51.978;5.330;2023-06-10T12:33:35;32.40;47.70
14188;DHT22;7175;51.978;5.330;2023-06-10T12:36:03;32.70;46.70
14188;DHT22;7175;51.978;5.330;2023-06-10T12:38:41;33.10;46.40
14188;DHT22;7175;51.978;5.330;2023-06-10T12:41:25;33.30;46.70
14188;DHT22;7175;51.978;5.330;2023-06-10T12:43:54;33.10;46.00
14188;DHT22;7175;51.978;5.330;2023-06-10T12:46:22;32.70;46.80
14188;DHT22;7175;51.978;5.330;2023-06-10T12:48:51;32.70;45.40
14188;DHT22;7175;51.978;5.330;2023-06-10T12:51:22;33.00;46.00
14188;DHT22;7175;51.978;5.330;2023-06-10T12:54:13;32.90;45.60
14188;DHT22;7175;51.978;5.330;2023-06-10T12:56:43;33.00;44.90
14188;DHT22;7175;51.978;5.330;2023-06-10T12:59:12;32.90;45.60
14188;DHT22;7175;51.978;5.330;2023-06-10T13:01:41;33.90;45.40
14188;DHT22;7175;51.978;5.330;2023-06-10T13:04:09;32.60;43.60
14188;DHT22;7175;51.978;5.330;2023-06-10T13:06:44;32.50;44.50
14188;DHT22;7175;51.978;5.330;2023-06-10T13:09:24;32.60;45.60
14188;DHT22;7175;51.978;5.330;2023-06-10T13:11:52;32.80;45.80
14188;DHT22;7175;51.978;5.330;2023-06-10T13:14:20;32.90;44.60
14188;DHT22;7175;51.978;5.330;2023-06-10T13:16:52;33.40;45.40
14188;DHT22;7175;51.978;5.330;2023-06-10T13:19:28;33.50;43.10
14188;DHT22;7175;51.978;5.330;2023-06-10T13:22:11;33.40;43.10
14188;DHT22;7175;51.978;5.330;2023-06-10T13:24:53;32.90;44.60
14188;DHT22;7175;51.978;5.330;2023-06-10T13:27:22;33.50;44.60
14188;DHT22;7175;51.978;5.330;2023-06-10T13:29:54;33.30;42.60
14188;DHT22;7175;51.978;5.330;2023-06-10T13:32:57;33.40;42.80
14188;DHT22;7175;51.978;5.330;2023-06-10T13:35:26;33.40;43.00
14188;DHT22;7175;51.978;5.330;2023-06-10T13:38:00;33.00;43.10
14188;DHT22;7175;51.978;5.330;2023-06-10T13:40:38;33.30;43.40
14188;DHT22;7175;51.978;5.330;2023-06-10T13:43:10;33.10;42.80
14188;DHT22;7175;51.978;5.330;2023-06-10T13:45:41;33.40;43.10
14188;DHT22;7175;51.978;5.330;2023-06-10T13:48:10;33.30;44.00
14188;DHT22;7175;51.978;5.330;2023-06-10T13:50:54;33.00;43.60
14188;DHT22;7175;51.978;5.330;2023-06-10T13:53:23;32.90;43.30
14188;DHT22;7175;51.978;5.330;2023-06-10T13:56:00;32.60;44.80
14188;DHT22;7175;51.978;5.330;2023-06-10T13:58:29;32.90;41.90
14188;DHT22;7175;51.978;5.330;2023-06-10T14:00:57;32.90;43.70
14188;DHT22;7175;51.978;5.330;2023-06-10T14:03:37;33.30;42.10
14188;DHT22;7175;51.978;5.330;2023-06-10T14:06:06;33.00;43.20
14188;DHT22;7175;51.978;5.330;2023-06-10T14:08:41;32.50;42.70
14188;DHT22;7175;51.978;5.330;2023-06-10T14:11:23;32.50;43.30
14188;DHT22;7175;51.978;5.330;2023-06-10T14:13:59;32.80;43.00
14188;DHT22;7175;51.978;5.330;2023-06-10T14:16:28;33.00;42.70
14188;DHT22;7175;51.978;5.330;2023-06-10T14:18:57;32.90;42.60
14188;DHT22;7175;51.978;5.330;2023-06-10T14:21:27;33.00;43.70
14188;DHT22;7175;51.978;5.330;2023-06-10T14:23:56;32.90;43.30
14188;DHT22;7175;51.978;5.330;2023-06-10T14:26:28;32.50;43.20
14188;DHT22;7175;51.978;5.330;2023-06-10T14:28:56;32.40;42.40
14188;DHT22;7175;51.978;5.330;2023-06-10T14:31:26;32.60;43.00
14188;DHT22;7175;51.978;5.330;2023-06-10T14:34:05;32.90;43.80
14188;DHT22;7175;51.978;5.330;2023-06-10T14:36:53;32.80;44.00
14188;DHT22;7175;51.978;5.330;2023-06-10T14:39:31;32.40;43.50
14188;DHT22;7175;51.978;5.330;2023-06-10T14:42:19;32.40;42.00
14188;DHT22;7175;51.978;5.330;2023-06-10T14:44:56;32.40;43.20
14188;DHT22;7175;51.978;5.330;2023-06-10T14:47:44;32.60;42.40
14188;DHT22;7175;51.978;5.330;2023-06-10T14:50:12;32.40;43.10
14188;DHT22;7175;51.978;5.330;2023-06-10T14:52:41;32.70;44.30
14188;DHT22;7175;51.978;5.330;2023-06-10T14:55:09;32.70;43.10
14188;DHT22;7175;51.978;5.330;2023-06-10T14:57:41;32.10;42.50
14188;DHT22;7175;51.978;5.330;2023-06-10T15:00:12;32.20;42.20
14188;DHT22;7175;51.978;5.330;2023-06-10T15:02:42;32.20;43.10
14188;DHT22;7175;51.978;5.330;2023-06-10T15:05:11;32.10;42.80
14188;DHT22;7175;51.978;5.330;2023-06-10T15:07:41;32.20;44.00
14188;DHT22;7175;51.978;5.330;2023-06-10T15:10:10;31.70;42.20
14188;DHT22;7175;51.978;5.330;2023-06-10T15:12:41;32.00;42.90
14188;DHT22;7175;51.978;5.330;2023-06-10T15:15:10;31.80;42.90
14188;DHT22;7175;51.978;5.330;2023-06-10T15:17:39;31.70;43.70
14188;DHT22;7175;51.978;5.330;2023-06-10T15:20:11;31.70;43.70
14188;DHT22;7175;51.978;5.330;2023-06-10T15:22:42;31.80;41.80
14188;DHT22;7175;51.978;5.330;2023-06-10T15:25:11;31.70;41.70
14188;DHT22;7175;51.978;5.330;2023-06-10T15:27:46;31.50;42.00
14188;DHT22;7175;51.978;5.330;2023-06-10T15:30:26;31.50;42.90
14188;DHT22;7175;51.978;5.330;2023-06-10T15:32:58;31.20;43.90
14188;DHT22;7175;51.978;5.330;2023-06-10T15:35:50;31.00;42.90
14188;DHT22;7175;51.978;5.330;2023-06-10T15:38:34;30.50;43.10
14188;DHT22;7175;51.978;5.330;2023-06-10T15:41:03;30.70;43.20
14188;DHT22;7175;51.978;5.330;2023-06-10T15:43:34;30.60;42.60
14188;DHT22;7175;51.978;5.330;2023-06-10T15:46:04;30.70;43.70
14188;DHT22;7175;51.978;5.330;2023-06-10T15:48:34;30.40;43.20
14188;DHT22;7175;51.978;5.330;2023-06-10T15:51:05;30.30;42.50
14188;DHT22;7175;51.978;5.330;2023-06-10T15:56:42;30.50;44.00
14188;DHT22;7175;51.978;5.330;2023-06-10T15:59:12;30.60;42.60
14188;DHT22;7175;51.978;5.330;2023-06-10T16:01:42;30.60;44.00
14188;DHT22;7175;51.978;5.330;2023-06-10T16:04:14;30.70;45.40
14188;DHT22;7175;51.978;5.330;2023-06-10T16:06:42;30.40;44.60
14188;DHT22;7175;51.978;5.330;2023-06-10T16:09:11;30.40;45.20
14188;DHT22;7175;51.978;5.330;2023-06-10T16:11:39;30.50;44.20
14188;DHT22;7175;51.978;5.330;2023-06-10T16:14:07;30.50;44.40
14188;DHT22;7175;51.978;5.330;2023-06-10T16:16:36;30.60;43.70
14188;DHT22;7175;51.978;5.330;2023-06-10T16:19:05;30.40;42.60
14188;DHT22;7175;51.978;5.330;2023-06-10T16:21:33;30.60;43.60
14188;DHT22;7175;51.978;5.330;2023-06-10T16:24:03;30.70;44.00
14188;DHT22;7175;51.978;5.330;2023-06-10T16:26:32;30.90;44.80
14188;DHT22;7175;51.978;5.330;2023-06-10T16:29:00;30.90;45.10